Time;durP1;ratioP1;P1;durP2;ratioP2;P2;SDS_P1;SDS_P2;PMS_P1;PMS_P2;Temp;Humidity;BMP_temperature;BMP_pressure;BME280_temperature;BME280_humidity;BME280_pressure;Samples;Min_cycle;Max_cycle;Signal;HPM_P1;HPM_P2
2021/11/10 00:00:29;;;;;;;4.97;3.07;;;;;;;2.94;74.44;99856.97;5052659;28;40783;-79
2021/11/10 00:02:57;;;;;;;2.97;2.67;;;;;;;2.87;74.34;99844.84;5070032;28;42939;-79
2021/11/10 00:05:27;;;;;;;3.63;2.30;;;;;;;3.00;74.40;99866.44;5115438;27;42029;-77
2021/11/10 00:07:55;;;;;;;5.00;2.63;;;;;;;3.00;74.39;99861.22;5090347;28;39954;-77
2021/11/10 00:10:22;;;;;;;3.50;2.80;;;;;;;2.83;74.34;99843.19;5088913;28;41668;-79
2021/11/10 00:12:50;;;;;;;5.50;3.37;;;;;;;2.95;74.27;99865.66;5089800;28;43242;-79
2021/11/10 00:15:18;;;;;;;3.07;2.23;;;;;;;2.95;74.34;99858.69;5089671;28;41136;-79
2021/11/10 00:17:45;;;;;;;3.73;2.70;;;;;;;2.92;74.19;99850.88;5089675;28;40221;-79
2021/11/10 00:20:13;;;;;;;4.40;1.93;;;;;;;2.89;74.18;99848.31;5072120;28;40359;-78
2021/11/10 08:47:09;;;;;;;5.27;4.00;;;;;;;2.42;94.22;99766.22;5107580;28;20557;-79
2021/11/10 08:49:37;;;;;;;4.97;3.17;;;;;;;3.22;94.40;99786.66;5106419;28;38964;-78
2021/11/10 08:52:06;;;;;;;6.03;3.60;;;;;;;3.76;90.57;99768.19;5109714;27;40968;-77
2021/11/10 08:54:35;;;;;;;4.07;3.30;;;;;;;4.33;87.01;99785.28;5085803;28;42697;-77
2021/11/10 08:57:04;;;;;;;4.93;4.20;;;;;;;4.76;84.52;99788.69;5087072;28;42941;-78
2021/11/10 08:59:32;;;;;;;5.60;3.07;;;;;;;5.16;82.78;99783.31;5070242;28;40291;-77
2021/11/10 09:02:01;;;;;;;3.93;2.73;;;;;;;5.66;80.83;99797.72;5122933;27;42129;-77
2021/11/10 09:04:30;;;;;;;6.13;3.03;;;;;;;6.10;79.54;99799.97;5107488;28;42892;-77
2021/11/10 09:06:57;;;;;;;5.43;3.07;;;;;;;6.47;78.12;99793.59;5123197;27;40967;-77
2021/11/10 09:09:25;;;;;;;4.57;3.23;;;;;;;6.67;76.80;99793.84;5105736;28;39956;-76
2021/11/10 09:11:53;;;;;;;5.17;4.10;;;;;;;6.82;75.92;99801.25;5087049;28;40590;-77
2021/11/10 09:14:23;;;;;;;4.80;3.53;;;;;;;7.01;75.51;99804.16;5084643;28;43075;-77
2021/11/10 09:16:50;;;;;;;4.93;3.43;;;;;;;7.29;74.80;99805.88;5085893;28;40774;-77
2021/11/10 09:19:18;;;;;;;7.30;3.90;;;;;;;7.56;73.71;99813.66;5097902;28;40703;-78
2021/11/10 09:21:47;;;;;;;4.47;3.70;;;;;;;7.82;72.71;99817.16;5107102;28;41906;-77
2021/11/10 09:24:15;;;;;;;6.17;4.23;;;;;;;7.94;71.12;99817.56;5106803;28;42562;-77
2021/11/10 09:26:43;;;;;;;7.13;3.70;;;;;;;8.06;70.90;99818.03;5106107;28;42175;-77
2021/11/10 09:29:10;;;;;;;4.83;3.13;;;;;;;8.17;70.20;99822.00;5131353;27;39877;-77
2021/11/10 09:31:40;;;;;;;5.30;3.43;;;;;;;8.34;69.67;99824.06;5068559;28;40668;-76
2021/11/10 09:34:10;;;;;;;5.60;3.63;;;;;;;8.56;69.52;99832.00;5085449;28;43855;-77
2021/11/10 09:36:46;;;;;;;5.33;3.93;;;;;;;8.70;69.04;99827.03;5085258;28;42707;-77
2021/11/10 09:39:16;;;;;;;6.77;4.63;;;;;;;8.82;68.49;99821.28;5087831;28;38764;-77
2021/11/10 09:41:46;;;;;;;5.60;3.57;;;;;;;9.09;67.72;99835.16;5088570;28;40627;-77
2021/11/10 09:44:14;;;;;;;7.77;4.23;;;;;;;9.53;66.24;99835.06;5105236;28;42236;-77
2021/11/10 09:46:43;;;;;;;5.20;4.13;;;;;;;9.96;65.44;99844.66;5104665;28;41156;-76
2021/11/10 09:49:12;;;;;;;6.83;4.40;;;;;;;10.69;63.56;99838.69;5083005;28;38600;-77
2021/11/10 09:51:40;;;;;;;5.93;4.83;;;;;;;11.41;60.73;99863.41;5087985;28;41392;-79
2021/11/10 09:54:09;;;;;;;6.07;4.90;;;;;;;11.13;61.57;99834.75;5105383;28;41589;-77
2021/11/10 09:56:39;;;;;;;7.33;4.93;;;;;;;11.37;61.25;99839.78;5079546;28;41465;-78
2021/11/10 09:59:08;;;;;;;5.07;3.77;;;;;;;12.38;58.15;99860.16;5073221;28;40680;-78
2021/11/10 10:01:38;;;;;;;6.10;4.30;;;;;;;13.54;54.44;99882.91;5054614;28;40513;-78
2021/11/10 10:04:06;;;;;;;4.90;3.90;;;;;;;15.15;50.06;99899.63;5070711;28;42613;-77
2021/11/10 10:06:35;;;;;;;6.40;4.37;;;;;;;16.36;48.46;99903.06;5072138;28;41078;-78
2021/11/10 10:09:04;;;;;;;6.57;4.27;;;;;;;17.29;46.40;99905.28;5090938;28;38637;-77
2021/11/10 10:11:32;;;;;;;6.23;4.13;;;;;;;18.65;43.92;99917.25;5108245;28;40720;-78
2021/11/10 10:14:01;;;;;;;8.23;5.10;;;;;;;19.82;39.85;99937.22;5076948;28;42848;-78
2021/11/10 10:16:30;;;;;;;5.60;3.87;;;;;;;21.24;38.59;99938.44;5054379;28;40971;-78
2021/11/10 10:19:06;;;;;;;4.13;3.70;;;;;;;22.10;36.26;99943.13;5072208;28;39166;-78
2021/11/10 10:21:34;;;;;;;5.90;4.03;;;;;;;22.57;35.44;99942.19;5091715;28;41848;-78
2021/11/10 10:24:01;;;;;;;4.90;4.20;;;;;;;22.54;34.26;99947.88;5074948;28;42105;-78
2021/11/10 10:26:29;;;;;;;4.53;3.67;;;;;;;22.57;34.46;99947.59;5084628;28;42880;-78
2021/11/10 10:29:03;;;;;;;6.63;4.13;;;;;;;22.77;33.31;99931.34;5071677;28;40717;-79
2021/11/10 10:31:33;;;;;;;4.20;3.80;;;;;;;23.34;33.63;99929.41;5071343;28;42449;-78
2021/11/10 10:34:02;;;;;;;5.53;3.90;;;;;;;23.53;32.70;99913.06;5070954;28;41776;-78
2021/11/10 10:36:33;;;;;;;5.20;4.70;;;;;;;23.66;31.68;99935.19;5073686;28;43180;-78
2021/11/10 10:39:03;;;;;;;4.67;4.13;;;;;;;23.65;31.81;99922.69;5074018;28;39506;-78
2021/11/10 10:41:32;;;;;;;4.67;4.10;;;;;;;23.28;32.07;99915.47;5106781;28;41051;-78
2021/11/10 10:44:05;;;;;;;4.53;4.13;;;;;;;22.45;32.51;99889.38;5074360;28;41746;-78
2021/11/10 10:46:38;;;;;;;4.60;4.20;;;;;;;22.01;33.32;99925.06;5057261;28;42116;-78
2021/11/10 10:49:16;;;;;;;4.93;4.00;;;;;;;21.50;34.11;99908.16;5053461;28;38792;-78
2021/11/10 10:51:46;;;;;;;5.03;3.60;;;;;;;20.53;35.38;99899.81;5080714;28;42614;-78
2021/11/10 10:54:14;;;;;;;4.83;4.07;;;;;;;20.22;36.02;99904.28;5124438;27;43711;-78
2021/11/10 10:56:48;;;;;;;4.43;3.67;;;;;;;20.77;34.79;99908.47;5076731;28;43204;-78
2021/11/10 10:59:16;;;;;;;5.03;4.53;;;;;;;21.07;35.22;99900.34;5071085;28;39918;-78
2021/11/10 11:01:51;;;;;;;4.43;3.90;;;;;;;20.42;35.97;99882.75;5069351;28;40610;-78
2021/11/10 11:04:20;;;;;;;7.10;4.37;;;;;;;19.97;36.38;99870.56;5091405;28;43775;-78
2021/11/10 11:06:50;;;;;;;6.00;4.87;;;;;;;20.43;36.19;99879.09;5073748;28;41201;-77
2021/11/10 11:09:21;;;;;;;5.40;4.27;;;;;;;20.60;34.62;99903.69;5074137;28;39977;-79
2021/11/10 11:11:56;;;;;;;4.90;4.27;;;;;;;20.49;34.89;99893.00;5053684;28;40567;-78
2021/11/10 11:14:41;;;;;;;4.50;4.10;;;;;;;20.91;34.81;99882.97;5069625;28;42423;-78
2021/11/10 11:17:25;;;;;;;5.67;4.03;;;;;;;21.57;34.21;99872.53;5052900;28;41290;-78
2021/11/10 11:19:56;;;;;;;5.83;4.90;;;;;;;22.06;33.05;99876.94;5053079;28;38766;-79
2021/11/10 11:22:25;;;;;;;7.07;5.70;;;;;;;22.31;32.69;99826.88;5069869;28;41781;-78
2021/11/10 11:24:54;;;;;;;5.67;4.77;;;;;;;22.53;32.16;99862.47;5078291;28;43437;-78
2021/11/10 11:27:24;;;;;;;4.70;4.17;;;;;;;22.78;32.15;99873.63;5106858;28;42014;-78
2021/11/10 11:29:59;;;;;;;5.10;4.60;;;;;;;24.46;30.36;99869.28;5073473;28;39266;-78
2021/11/10 11:32:30;;;;;;;5.77;4.83;;;;;;;25.48;28.78;99892.75;5090847;28;42801;-79
2021/11/10 11:35:08;;;;;;;5.20;4.40;;;;;;;25.88;28.33;99883.84;5083476;28;42871;-79
2021/11/10 11:37:36;;;;;;;4.47;4.07;;;;;;;26.74;26.51;99887.69;5052329;28;42455;-79
2021/11/10 11:40:08;;;;;;;5.33;4.90;;;;;;;27.98;25.92;99890.47;5053019;28;38989;-79
2021/11/10 11:42:37;;;;;;;5.53;5.03;;;;;;;28.09;25.71;99890.03;5070017;28;41611;-78
2021/11/10 11:45:07;;;;;;;6.37;4.70;;;;;;;26.53;26.33;99884.69;5085699;28;43811;-78
2021/11/10 11:47:36;;;;;;;4.77;4.27;;;;;;;24.59;28.42;99852.59;5069350;28;44821;-78
2021/11/10 11:50:05;;;;;;;5.00;4.50;;;;;;;22.97;30.33;99843.84;5052628;28;38974;-77
2021/11/10 11:52:34;;;;;;;6.23;4.43;;;;;;;21.67;31.87;99844.56;5071203;28;42407;-77
2021/11/10 11:55:08;;;;;;;5.00;4.50;;;;;;;20.59;33.32;99834.69;5062119;28;41728;-77
2021/11/10 11:57:40;;;;;;;5.30;4.73;;;;;;;19.65;34.83;99815.03;5090335;28;42621;-78
2021/11/10 12:00:09;;;;;;;4.90;4.40;;;;;;;18.87;35.85;99799.16;5086734;28;39036;-78
2021/11/10 12:02:46;;;;;;;4.97;4.30;;;;;;;18.27;37.26;99789.66;5070736;28;42603;-78
2021/11/10 12:05:18;;;;;;;7.50;5.17;;;;;;;17.95;37.05;99810.09;5068899;28;43114;-78
2021/11/10 12:07:52;;;;;;;7.57;5.30;;;;;;;17.88;37.32;99798.16;5069823;28;42340;-78
2021/11/10 12:10:36;;;;;;;6.37;4.80;;;;;;;17.73;38.36;99796.66;5068271;28;39912;-77
2021/11/10 12:13:17;;;;;;;5.90;4.93;;;;;;;17.58;38.50;99791.47;5069314;28;40996;-78
2021/11/10 12:16:15;;;;;;;5.20;4.60;;;;;;;17.56;39.30;99777.31;5051977;28;42108;-78
2021/11/10 12:18:51;;;;;;;4.77;4.07;;;;;;;18.24;38.32;99784.53;5064775;28;41122;-77
2021/11/10 12:21:21;;;;;;;6.60;5.17;;;;;;;19.01;37.24;99793.50;5071506;28;40202;-78
2021/11/10 12:24:10;;;;;;;5.17;4.67;;;;;;;19.44;36.51;99808.72;5073072;28;40566;-78
2021/11/10 12:27:22;;;;;;;5.20;4.13;;;;;;;20.37;35.65;99793.53;5070160;28;42811;-77
2021/11/10 12:30:22;;;;;;;6.43;4.67;;;;;;;21.20;33.79;99796.91;5071309;28;40891;-78
2021/11/10 12:33:01;;;;;;;5.83;4.00;;;;;;;20.95;33.96;99804.47;5079932;28;40756;-79
2021/11/10 12:35:44;;;;;;;5.03;4.00;;;;;;;20.61;33.71;99816.56;5072100;28;40980;-78
2021/11/10 12:38:19;;;;;;;5.70;5.07;;;;;;;20.61;34.26;99803.13;5071242;28;43619;-78
2021/11/10 12:40:50;;;;;;;6.63;4.90;;;;;;;20.94;33.98;99796.53;5069547;28;43070;-79
2021/11/10 12:43:21;;;;;;;4.70;3.77;;;;;;;21.11;33.88;99794.03;5051986;28;40571;-77
2021/11/10 12:46:02;;;;;;;5.03;4.30;;;;;;;20.84;34.17;99801.91;5057681;28;43000;-78
2021/11/10 12:48:33;;;;;;;6.67;4.97;;;;;;;20.52;33.96;99803.94;5088393;28;43676;-78
2021/11/10 12:51:17;;;;;;;5.43;3.73;;;;;;;19.96;35.05;99798.94;5088673;28;40793;-77
2021/11/10 12:53:47;;;;;;;6.00;4.37;;;;;;;19.84;35.21;99789.25;5088825;28;39955;-78
2021/11/10 12:56:15;;;;;;;6.10;4.30;;;;;;;20.33;34.97;99775.06;5048573;28;43351;-78
2021/11/10 12:58:44;;;;;;;6.23;4.43;;;;;;;20.61;33.95;99786.97;5031266;28;42777;-79
2021/11/10 13:01:14;;;;;;;5.50;4.20;;;;;;;20.22;34.40;99778.72;5060104;28;42515;-79
2021/11/10 13:03:44;;;;;;;4.77;4.23;;;;;;;19.85;35.31;99774.81;5090132;28;40220;-78
2021/11/10 13:06:18;;;;;;;6.30;4.47;;;;;;;19.41;36.05;99771.34;5088392;28;40736;-78
2021/11/10 13:08:55;;;;;;;5.70;4.43;;;;;;;18.91;36.63;99773.78;5100848;28;41588;-78
2021/11/10 13:11:25;;;;;;;6.07;4.70;;;;;;;18.35;37.01;99769.41;5067701;28;42017;-78
2021/11/10 13:14:06;;;;;;;7.53;5.17;;;;;;;17.86;38.37;99765.25;5069034;28;40329;-76
2021/11/10 13:16:33;;;;;;;4.73;4.23;;;;;;;17.39;39.00;99763.53;5068019;28;40882;-77
2021/11/10 13:19:01;;;;;;;5.63;5.00;;;;;;;16.96;39.70;99760.53;5072685;28;42969;-77
2021/11/10 13:21:29;;;;;;;7.13;4.90;;;;;;;16.51;39.99;99757.59;5089841;28;43173;-77
2021/11/10 13:24:09;;;;;;;6.70;4.43;;;;;;;16.23;41.30;99758.69;5089065;28;39250;-77
2021/11/10 13:26:37;;;;;;;8.13;4.80;;;;;;;15.99;42.12;99750.63;5072377;28;40717;-77
2021/11/10 13:29:06;;;;;;;7.33;4.70;;;;;;;15.79;42.19;99756.50;5090897;28;41681;-77
2021/11/10 13:31:35;;;;;;;6.63;5.03;;;;;;;15.61;42.83;99747.09;5067997;28;42179;-77
2021/11/10 13:34:08;;;;;;;5.97;4.10;;;;;;;15.37;43.30;99733.56;5055304;28;39078;-77
2021/11/10 13:36:38;;;;;;;5.50;4.00;;;;;;;15.48;43.37;99736.34;5088005;28;40531;-77
2021/11/10 13:39:11;;;;;;;5.47;3.87;;;;;;;15.60;43.21;99742.69;5082290;28;42774;-77
2021/11/10 13:41:40;;;;;;;4.97;3.93;;;;;;;15.45;43.47;99732.06;5108596;28;41335;-77
2021/11/10 13:44:10;;;;;;;7.70;4.67;;;;;;;15.75;43.13;99730.97;5108822;28;38416;-77
2021/11/10 13:46:41;;;;;;;7.00;4.97;;;;;;;16.66;42.38;99726.22;5123348;27;41624;-76
2021/11/10 13:49:17;;;;;;;5.97;4.60;;;;;;;17.41;41.57;99741.03;5054175;28;41686;-77
2021/11/10 13:51:52;;;;;;;6.77;3.93;;;;;;;17.48;41.11;99742.25;5070722;28;42382;-77
2021/11/10 13:54:22;;;;;;;6.20;4.33;;;;;;;17.55;41.11;99751.53;5070687;28;39990;-77
2021/11/10 13:56:53;;;;;;;7.63;4.93;;;;;;;17.83;40.69;99752.09;5053115;28;41477;-78
2021/11/10 13:59:24;;;;;;;5.53;4.37;;;;;;;18.17;39.46;99735.06;5067470;28;41758;-77
2021/11/10 14:01:55;;;;;;;4.63;4.00;;;;;;;18.42;39.43;99754.56;5092646;28;42910;-77
2021/11/10 14:04:25;;;;;;;5.47;4.00;;;;;;;18.18;39.28;99747.47;5105888;28;40366;-78
2021/11/10 14:07:14;;;;;;;6.07;4.30;;;;;;;17.98;39.86;99744.69;5092482;28;42481;-78
2021/11/10 14:10:00;;;;;;;6.13;4.70;;;;;;;17.70;40.18;99745.97;5070003;28;42470;-76
2021/11/10 14:12:31;;;;;;;6.67;4.20;;;;;;;17.52;40.79;99738.38;5073366;28;42155;-77
2021/11/10 14:15:01;;;;;;;5.53;4.20;;;;;;;17.30;41.24;99721.41;5097303;28;39068;-77
2021/11/10 14:17:31;;;;;;;6.43;4.57;;;;;;;17.02;41.68;99728.00;5072808;28;42744;-79
2021/11/10 14:20:02;;;;;;;5.93;4.73;;;;;;;16.48;42.25;99723.03;5071807;28;41785;-77
2021/11/10 14:22:32;;;;;;;6.37;3.73;;;;;;;15.93;43.34;99716.31;5072288;28;42419;-78
2021/11/10 14:25:03;;;;;;;5.53;4.10;;;;;;;15.39;44.11;99716.50;5071569;28;40939;-77
2021/11/10 14:27:37;;;;;;;4.43;4.03;;;;;;;14.91;44.67;99717.16;5053660;28;40796;-77
2021/11/10 14:30:12;;;;;;;6.37;4.83;;;;;;;14.43;45.72;99706.09;5070820;28;43428;-77
2021/11/10 14:32:42;;;;;;;5.57;4.30;;;;;;;14.08;46.42;99702.13;5069703;28;41047;-77
2021/11/10 14:35:11;;;;;;;5.87;4.20;;;;;;;13.75;47.35;99697.94;5090477;28;38939;-77
2021/11/10 14:37:39;;;;;;;5.40;3.80;;;;;;;13.51;47.67;99686.16;5090159;28;41881;-77
2021/11/10 14:40:31;;;;;;;4.83;3.87;;;;;;;13.21;48.41;99684.41;5072651;28;42012;-77
2021/11/10 14:43:00;;;;;;;5.30;3.93;;;;;;;12.94;48.73;99670.06;5103640;27;43271;-77
2021/11/10 14:45:28;;;;;;;7.43;4.30;;;;;;;12.69;49.21;99675.97;5069466;28;40998;-77
2021/11/10 14:47:58;;;;;;;6.90;4.13;;;;;;;12.47;49.27;99681.66;5052957;28;42516;-76
2021/11/10 14:50:29;;;;;;;5.93;3.37;;;;;;;12.22;49.61;99660.09;5052614;28;41832;-77
2021/11/10 14:53:08;;;;;;;4.77;3.63;;;;;;;12.03;50.26;99670.00;5070530;28;41936;-77
2021/11/10 14:55:38;;;;;;;5.67;3.47;;;;;;;11.81;50.07;99671.19;5069727;28;39984;-77
2021/11/10 14:58:19;;;;;;;6.27;3.53;;;;;;;11.62;50.78;99673.09;5069720;28;41696;-77
2021/11/10 15:00:49;;;;;;;5.23;3.33;;;;;;;11.41;50.87;99671.59;5071084;28;42682;-77
2021/11/10 15:03:19;;;;;;;6.10;3.90;;;;;;;11.24;51.83;99667.19;5069993;28;41992;-76
2021/11/10 15:05:47;;;;;;;6.07;3.83;;;;;;;11.06;52.03;99666.34;5052960;28;38920;-77
2021/11/10 15:08:15;;;;;;;6.27;3.70;;;;;;;10.91;52.04;99677.72;5069392;28;41766;-77
2021/11/10 15:10:56;;;;;;;6.77;3.73;;;;;;;10.75;51.66;99687.38;5069680;28;43657;-77
2021/11/10 15:13:24;;;;;;;4.90;3.40;;;;;;;10.60;52.49;99677.56;5069919;28;43701;-77
2021/11/10 15:15:54;;;;;;;7.20;3.87;;;;;;;10.42;52.50;99677.50;5053134;28;39945;-77
2021/11/10 15:18:24;;;;;;;10.07;4.67;;;;;;;10.18;52.76;99665.47;5074480;28;41707;-76
2021/11/10 15:20:53;;;;;;;6.97;3.60;;;;;;;10.12;52.91;99676.31;5088663;28;43001;-75
2021/11/10 15:23:22;;;;;;;4.97;3.47;;;;;;;9.98;53.37;99679.63;5051938;28;41330;-77
2021/11/10 15:25:51;;;;;;;6.53;3.70;;;;;;;9.87;53.37;99678.41;5069639;28;40482;-78
2021/11/10 15:28:24;;;;;;;5.57;3.37;;;;;;;9.72;53.78;99666.72;5068700;28;40713;-77
2021/11/10 15:30:54;;;;;;;5.43;3.87;;;;;;;9.58;54.12;99675.28;5052814;28;41822;-77
2021/11/10 15:33:24;;;;;;;5.93;3.60;;;;;;;9.45;54.41;99683.84;5053340;28;42192;-76
2021/11/10 15:35:53;;;;;;;4.77;2.87;;;;;;;9.25;54.39;99672.38;5069970;28;39264;-77
2021/11/10 15:38:23;;;;;;;7.40;3.70;;;;;;;9.20;55.53;99674.34;5070253;28;42465;-76
2021/11/10 15:40:54;;;;;;;7.80;5.10;;;;;;;9.08;55.60;99676.69;5068583;28;42860;-78
2021/11/10 15:43:24;;;;;;;12.10;4.40;;;;;;;8.95;56.73;99671.91;5052946;28;41354;-78
2021/11/10 15:45:52;;;;;;;9.53;5.10;;;;;;;8.84;57.04;99674.16;5069015;28;39974;-77
2021/11/10 15:48:25;;;;;;;8.17;5.67;;;;;;;8.72;57.33;99671.19;5050980;28;40535;-77
2021/11/10 15:50:55;;;;;;;5.20;4.17;;;;;;;8.62;57.52;99676.00;5051883;28;43040;-77
2021/11/10 15:53:24;;;;;;;7.57;4.90;;;;;;;8.52;58.07;99679.94;5053187;28;41503;-77
2021/11/10 15:55:53;;;;;;;12.07;6.07;;;;;;;8.29;57.81;99657.06;5071863;28;39986;-77
2021/11/10 15:58:22;;;;;;;8.17;4.73;;;;;;;8.32;58.01;99671.94;5068613;28;40887;-77
2021/11/10 16:00:52;;;;;;;6.57;4.50;;;;;;;8.21;58.08;99675.84;5052059;28;42997;-77
2021/11/10 16:03:21;;;;;;;5.73;4.00;;;;;;;8.13;57.84;99672.66;5051682;28;41303;-77
2021/11/10 16:05:50;;;;;;;8.43;4.83;;;;;;;8.05;57.87;99674.72;5051732;28;39230;-77
2021/11/10 16:08:18;;;;;;;7.53;4.67;;;;;;;7.95;58.29;99676.00;5051709;28;40656;-76
2021/11/10 16:10:48;;;;;;;5.67;3.80;;;;;;;7.88;57.92;99683.31;5051532;28;41605;-79
2021/11/10 16:13:17;;;;;;;5.77;3.70;;;;;;;7.78;58.44;99686.38;5052079;28;41725;-77
2021/11/10 16:15:45;;;;;;;5.93;4.20;;;;;;;7.67;58.60;99672.69;5069165;28;38816;-78
2021/11/10 16:18:15;;;;;;;4.87;4.07;;;;;;;7.57;58.33;99673.06;5067353;28;41331;-77
2021/11/10 16:20:44;;;;;;;5.60;3.70;;;;;;;7.49;58.21;99683.03;5052126;28;41727;-77
2021/11/10 16:23:13;;;;;;;5.67;3.60;;;;;;;7.27;58.59;99655.75;5048126;28;41552;-78
2021/11/10 16:25:40;;;;;;;4.87;3.33;;;;;;;7.30;58.49;99678.47;5074521;28;38883;-78
2021/11/10 16:28:11;;;;;;;7.33;4.17;;;;;;;7.20;58.75;99680.56;5068181;28;40572;-77
2021/11/10 16:30:46;;;;;;;8.00;3.27;;;;;;;7.13;58.73;99687.00;5050901;28;43291;-78
2021/11/10 16:33:17;;;;;;;5.47;3.20;;;;;;;7.05;58.62;99704.81;5093287;28;43162;-77
2021/11/10 16:35:46;;;;;;;7.77;3.60;;;;;;;6.87;58.84;99681.75;5069724;28;39586;-81
2021/11/10 16:38:17;;;;;;;7.07;4.00;;;;;;;6.92;59.08;99698.28;5067879;28;41452;-77
2021/11/10 16:40:45;;;;;;;4.87;4.13;;;;;;;6.86;59.45;99701.97;5067833;28;43658;-77
2021/11/10 16:43:15;;;;;;;5.87;3.53;;;;;;;6.79;59.66;99698.69;5067632;28;41395;-78
2021/11/10 16:45:43;;;;;;;7.40;4.53;;;;;;;6.76;59.58;99706.69;5072448;28;40959;-78
2021/11/10 16:48:11;;;;;;;11.13;6.07;;;;;;;6.72;59.62;99701.56;5084366;28;41769;-80
2021/11/10 16:50:41;;;;;;;6.63;4.53;;;;;;;6.65;59.96;99700.06;5067941;28;42757;-77
2021/11/10 16:53:09;;;;;;;8.00;4.60;;;;;;;6.69;59.83;99710.41;5071738;28;43203;-78
2021/11/10 16:55:39;;;;;;;9.07;4.70;;;;;;;6.56;60.25;99684.53;5089174;28;38881;-78
2021/11/10 16:58:14;;;;;;;9.00;4.83;;;;;;;6.65;60.23;99702.69;5048994;28;41208;-77
2021/11/10 17:00:41;;;;;;;5.83;3.23;;;;;;;6.52;60.14;99691.72;5061990;28;42198;-78
2021/11/10 17:03:09;;;;;;;11.33;4.87;;;;;;;6.61;59.89;99715.09;5054071;28;42055;-77
2021/11/10 17:05:37;;;;;;;4.93;3.27;;;;;;;6.61;60.12;99720.34;5046170;28;39150;-77
2021/11/10 17:08:06;;;;;;;8.73;3.90;;;;;;;6.57;60.28;99718.72;5050665;28;40531;-79
2021/11/10 17:10:33;;;;;;;8.07;3.63;;;;;;;6.57;60.14;99718.72;5068685;28;42705;-77
2021/11/10 17:13:01;;;;;;;6.13;3.30;;;;;;;6.54;60.52;99721.47;5053496;28;42352;-78
2021/11/10 17:15:28;;;;;;;7.00;3.87;;;;;;;6.54;60.37;99726.72;5087759;28;39046;-78
2021/11/10 17:17:56;;;;;;;7.60;3.80;;;;;;;6.53;60.50;99725.00;5070116;28;41422;-78
2021/11/10 17:20:24;;;;;;;8.30;4.37;;;;;;;6.51;61.59;99707.53;5069922;28;41699;-78
2021/11/10 17:22:52;;;;;;;6.63;4.10;;;;;;;6.27;61.62;99672.34;5055318;28;42294;-79
2021/11/10 17:25:22;;;;;;;8.20;4.50;;;;;;;6.43;61.59;99711.25;5103881;28;40652;-77
2021/11/10 17:27:50;;;;;;;10.07;5.00;;;;;;;6.38;61.26;99712.34;5070001;28;41778;-77
2021/11/10 17:30:18;;;;;;;8.20;4.30;;;;;;;6.36;61.85;99706.25;5070068;28;42740;-78
2021/11/10 17:32:46;;;;;;;6.87;4.10;;;;;;;6.04;61.80;99663.44;5053300;28;42010;-78
2021/11/10 17:35:17;;;;;;;7.93;4.33;;;;;;;6.26;61.84;99708.31;5053250;28;40034;-77
2021/11/10 17:37:48;;;;;;;6.63;4.07;;;;;;;6.22;61.80;99705.81;5071195;28;41736;-77
2021/11/10 17:40:17;;;;;;;5.50;4.20;;;;;;;6.15;61.94;99704.31;5069519;28;41691;-78
2021/11/10 17:42:47;;;;;;;5.63;3.77;;;;;;;6.09;62.10;99711.47;5069987;28;42220;-79
2021/11/10 17:45:17;;;;;;;7.67;4.53;;;;;;;6.03;62.02;99706.41;5055126;28;40331;-78
2021/11/10 17:47:45;;;;;;;5.53;3.30;;;;;;;5.98;62.16;99708.31;5074535;28;41345;-77
2021/11/10 17:50:15;;;;;;;6.50;3.63;;;;;;;5.92;62.51;99708.50;5103505;28;43678;-77
2021/11/10 17:52:43;;;;;;;9.10;3.93;;;;;;;5.73;62.38;99686.25;5054192;28;40915;-78
2021/11/10 17:55:13;;;;;;;6.53;3.83;;;;;;;5.80;62.26;99698.31;5070142;28;40169;-77
2021/11/10 17:57:42;;;;;;;3.83;3.00;;;;;;;5.67;62.68;99689.06;5052708;28;40747;-78
2021/11/10 18:00:14;;;;;;;5.50;3.40;;;;;;;5.69;62.92;99695.13;5053012;28;42838;-78
2021/11/10 18:02:42;;;;;;;5.13;3.53;;;;;;;5.63;62.81;99690.94;5087363;28;41190;-77
2021/11/10 18:05:11;;;;;;;8.93;6.87;;;;;;;5.56;62.72;99699.03;5103758;27;40855;-77
2021/11/10 18:07:38;;;;;;;4.90;3.40;;;;;;;5.38;63.16;99682.88;5070089;28;42345;-77
2021/11/10 18:10:07;;;;;;;8.07;4.37;;;;;;;5.42;63.34;99696.81;5086422;28;41681;-77
2021/11/10 18:12:36;;;;;;;7.47;4.93;;;;;;;5.35;63.57;99690.84;5103545;28;43214;-78
2021/11/10 18:15:05;;;;;;;4.07;3.53;;;;;;;5.19;63.37;99679.06;5053785;28;38865;-77
2021/11/10 18:17:34;;;;;;;6.90;4.50;;;;;;;5.24;63.81;99708.66;5053845;28;40913;-78
2021/11/10 18:20:02;;;;;;;4.80;3.97;;;;;;;5.07;63.86;99679.38;5053605;28;41871;-77
2021/11/10 18:22:30;;;;;;;8.07;5.33;;;;;;;5.11;64.07;99686.28;5070161;28;42393;-78
2021/11/10 18:24:57;;;;;;;9.57;5.77;;;;;;;5.04;64.12;99701.34;5051377;28;39432;-77
2021/11/10 18:27:27;;;;;;;5.30;3.80;;;;;;;5.01;64.12;99704.03;5051947;28;40963;-76
2021/11/10 18:29:55;;;;;;;7.17;5.40;;;;;;;4.86;64.16;99698.31;5069797;28;43450;-77
2021/11/10 18:32:22;;;;;;;10.00;5.10;;;;;;;4.91;64.61;99706.94;5053539;28;42129;-76
2021/11/10 18:34:51;;;;;;;7.97;5.50;;;;;;;4.85;64.69;99714.97;5068912;28;39746;-77
2021/11/10 18:37:19;;;;;;;7.53;4.63;;;;;;;4.74;65.11;99712.63;5052650;28;40895;-77
2021/11/10 18:39:46;;;;;;;6.67;5.47;;;;;;;4.61;65.43;99696.31;5069434;28;42029;-78
2021/11/10 18:42:14;;;;;;;7.97;4.83;;;;;;;4.65;65.36;99707.59;5054163;28;41932;-77
2021/11/10 18:44:41;;;;;;;10.10;5.47;;;;;;;4.64;65.55;99721.63;5063831;28;39038;-77
2021/11/10 18:47:11;;;;;;;5.83;4.70;;;;;;;4.54;65.55;99710.50;5052071;28;41878;-77
2021/11/10 18:49:39;;;;;;;10.40;6.87;;;;;;;4.56;65.76;99715.72;5086596;28;41739;-77
2021/11/10 18:52:10;;;;;;;10.10;6.00;;;;;;;4.48;65.63;99705.38;5052760;28;42449;-79
2021/11/10 18:54:38;;;;;;;10.10;6.50;;;;;;;4.50;65.98;99708.84;5052873;28;39297;-76
2021/11/10 18:57:07;;;;;;;7.53;3.83;;;;;;;4.49;65.95;99711.50;5068744;28;41777;-77
2021/11/10 18:59:35;;;;;;;7.43;4.40;;;;;;;4.43;66.26;99702.03;5069249;28;42922;-76
2021/11/10 19:02:05;;;;;;;8.43;4.90;;;;;;;4.44;66.55;99709.00;5051652;28;42164;-77
2021/11/10 19:04:38;;;;;;;8.20;4.53;;;;;;;4.41;66.39;99702.97;5070027;28;40000;-77
2021/11/10 19:07:13;;;;;;;6.20;3.83;;;;;;;4.35;66.43;99703.97;5085352;28;41085;-77
2021/11/10 19:18:17;;;;;;;6.27;4.27;;;;;;;4.24;66.91;99704.22;5028201;28;42636;-76
2021/11/10 19:20:47;;;;;;;7.13;4.30;;;;;;;4.21;66.72;99713.91;5068148;28;42708;-77
2021/11/10 19:23:16;;;;;;;11.40;5.40;;;;;;;4.06;67.17;99695.94;5067907;28;42211;-77
2021/11/10 19:25:45;;;;;;;10.57;5.77;;;;;;;3.97;67.36;99676.88;5051544;28;39147;-78
2021/11/10 19:28:13;;;;;;;5.33;4.07;;;;;;;4.14;67.32;99714.94;5068268;28;42607;-77
2021/11/10 19:30:41;;;;;;;7.87;4.70;;;;;;;4.03;67.28;99701.22;5082378;28;43627;-77
2021/11/10 19:33:10;;;;;;;7.87;4.53;;;;;;;3.93;67.38;99690.97;5049775;28;41384;-77
2021/11/10 19:35:37;;;;;;;7.33;4.93;;;;;;;3.94;67.12;99690.06;5050995;28;38748;-77
2021/11/10 19:38:05;;;;;;;4.93;3.70;;;;;;;4.02;67.21;99703.00;5066950;28;41650;-77
2021/11/10 19:40:34;;;;;;;6.77;3.53;;;;;;;3.99;67.09;99700.44;5068971;28;43485;-78
2021/11/10 19:43:03;;;;;;;5.97;4.00;;;;;;;3.95;67.23;99704.91;5049507;28;41505;-77
2021/11/10 19:45:31;;;;;;;7.17;4.30;;;;;;;3.92;67.18;99694.47;5050518;28;40629;-77
2021/11/10 19:47:59;;;;;;;8.17;4.80;;;;;;;3.88;67.21;99698.06;5068971;28;41631;-77
2021/11/10 19:50:30;;;;;;;5.67;4.00;;;;;;;3.85;67.18;99703.34;5054888;28;42354;-77
2021/11/10 19:52:58;;;;;;;8.93;4.93;;;;;;;3.82;67.25;99708.69;5068866;28;41876;-77
2021/11/10 19:55:28;;;;;;;5.20;3.97;;;;;;;3.76;68.49;99692.22;5068364;28;40915;-76
2021/11/10 19:58:00;;;;;;;8.30;5.13;;;;;;;3.75;68.14;99701.84;5049896;28;41089;-76
2021/11/10 20:00:33;;;;;;;8.40;5.00;;;;;;;3.61;68.01;99682.91;5051213;28;43152;-76
2021/11/10 20:03:02;;;;;;;8.07;4.80;;;;;;;3.69;68.03;99711.59;5067546;28;41266;-78
2021/11/10 20:05:31;;;;;;;9.73;6.33;;;;;;;3.65;68.00;99715.16;5085165;28;39927;-76
2021/11/10 20:07:59;;;;;;;9.73;5.33;;;;;;;3.60;68.01;99718.72;5068056;28;42173;-77
2021/11/10 20:10:30;;;;;;;5.53;4.03;;;;;;;3.50;67.97;99705.84;5067127;28;42303;-76
2021/11/10 20:12:59;;;;;;;8.67;5.00;;;;;;;3.38;68.00;99696.50;5051657;28;41501;-77
2021/11/10 20:15:28;;;;;;;9.37;5.07;;;;;;;3.51;68.03;99723.28;5068582;28;40127;-77
2021/11/10 20:17:59;;;;;;;7.33;5.10;;;;;;;3.36;68.21;99694.78;5050752;28;41232;-77
2021/11/10 20:20:28;;;;;;;10.20;6.83;;;;;;;3.44;68.32;99722.56;5050577;28;41624;-77
2021/11/10 20:23:07;;;;;;;6.87;4.47;;;;;;;3.32;68.54;99708.84;5101666;28;42903;-78
2021/11/10 20:25:35;;;;;;;11.27;7.23;;;;;;;3.28;68.56;99704.56;5067708;28;38881;-77